sensor_id;sensor_type;location;lat;lon;timestamp;temperature;humidity
11922;DHT22;6021;51.182;3.160;2023-05-10T00:01:16;12.90;99.90
11922;DHT22;6021;51.182;3.160;2023-05-10T00:03:44;12.90;99.90
11922;DHT22;6021;51.182;3.160;2023-05-10T00:06:13;12.90;99.90
11922;DHT22;6021;51.182;3.160;2023-05-10T00:08:41;13.00;99.90
11922;DHT22;6021;51.182;3.160;2023-05-10T00:11:09;12.90;99.90
11922;DHT22;6021;51.182;3.160;2023-05-10T00:13:38;12.90;99.90
11922;DHT22;6021;51.182;3.160;2023-05-10T00:16:06;12.80;99.90
11922;DHT22;6021;51.182;3.160;2023-05-10T00:18:34;12.80;99.90
11922;DHT22;6021;51.182;3.160;2023-05-10T00:21:03;12.80;99.90
11922;DHT22;6021;51.182;3.160;2023-05-10T00:23:31;13.00;99.90
11922;DHT22;6021;51.182;3.160;2023-05-10T00:26:00;12.80;99.90
11922;DHT22;6021;51.182;3.160;2023-05-10T00:28:28;12.80;99.90
11922;DHT22;6021;51.182;3.160;2023-05-10T00:30:57;12.90;99.90
11922;DHT22;6021;51.182;3.160;2023-05-10T00:33:25;12.80;99.90
11922;DHT22;6021;51.182;3.160;2023-05-10T00:35:53;12.90;99.90
11922;DHT22;6021;51.182;3.160;2023-05-10T00:38:21;12.80;99.90
11922;DHT22;6021;51.182;3.160;2023-05-10T00:40:50;12.70;99.90
11922;DHT22;6021;51.182;3.160;2023-05-10T00:43:18;12.80;99.90
11922;DHT22;6021;51.182;3.160;2023-05-10T00:45:47;12.80;99.90
11922;DHT22;6021;51.182;3.160;2023-05-10T00:48:15;12.80;99.90
11922;DHT22;6021;51.182;3.160;2023-05-10T00:50:43;12.80;99.90
11922;DHT22;6021;51.182;3.160;2023-05-10T00:53:12;12.90;99.90
11922;DHT22;6021;51.182;3.160;2023-05-10T00:55:40;12.90;99.90
11922;DHT22;6021;51.182;3.160;2023-05-10T00:58:09;13.00;99.90
11922;DHT22;6021;51.182;3.160;2023-05-10T01:00:38;12.80;99.90
11922;DHT22;6021;51.182;3.160;2023-05-10T01:08:48;12.80;99.90
11922;DHT22;6021;51.182;3.160;2023-05-10T01:11:25;12.80;99.90
11922;DHT22;6021;51.182;3.160;2023-05-10T01:16:37;12.60;99.90
11922;DHT22;6021;51.182;3.160;2023-05-10T01:19:06;12.60;99.90
11922;DHT22;6021;51.182;3.160;2023-05-10T01:21:49;12.60;99.90
11922;DHT22;6021;51.182;3.160;2023-05-10T01:30:49;12.60;99.90
11922;DHT22;6021;51.182;3.160;2023-05-10T01:33:18;12.60;99.90
11922;DHT22;6021;51.182;3.160;2023-05-10T01:36:05;12.70;99.90
11922;DHT22;6021;51.182;3.160;2023-05-10T01:38:53;12.60;99.90
11922;DHT22;6021;51.182;3.160;2023-05-10T01:44:17;12.70;99.90
11922;DHT22;6021;51.182;3.160;2023-05-10T01:46:49;12.70;99.90
11922;DHT22;6021;51.182;3.160;2023-05-10T01:49:23;12.50;99.90
11922;DHT22;6021;51.182;3.160;2023-05-10T01:51:53;12.50;99.90
11922;DHT22;6021;51.182;3.160;2023-05-10T01:57:05;12.60;99.90
11922;DHT22;6021;51.182;3.160;2023-05-10T01:59:39;12.20;99.90
11922;DHT22;6021;51.182;3.160;2023-05-10T02:02:14;12.40;99.90
11922;DHT22;6021;51.182;3.160;2023-05-10T02:04:44;12.40;99.90
11922;DHT22;6021;51.182;3.160;2023-05-10T02:07:14;12.40;99.90
11922;DHT22;6021;51.182;3.160;2023-05-10T02:09:49;12.40;99.90
11922;DHT22;6021;51.182;3.160;2023-05-10T02:12:25;12.20;99.90
11922;DHT22;6021;51.182;3.160;2023-05-10T02:22:50;12.40;99.90
11922;DHT22;6021;51.182;3.160;2023-05-10T02:25:22;12.40;99.90
11922;DHT22;6021;51.182;3.160;2023-05-10T02:27:53;12.40;99.90
11922;DHT22;6021;51.182;3.160;2023-05-10T02:30:22;12.40;99.90
11922;DHT22;6021;51.182;3.160;2023-05-10T02:32:52;12.40;99.90
11922;DHT22;6021;51.182;3.160;2023-05-10T02:35:21;12.30;99.90
11922;DHT22;6021;51.182;3.160;2023-05-10T02:37:50;12.30;99.90
11922;DHT22;6021;51.182;3.160;2023-05-10T02:40:20;12.40;99.90
11922;DHT22;6021;51.182;3.160;2023-05-10T02:42:50;12.30;99.90
11922;DHT22;6021;51.182;3.160;2023-05-10T02:45:22;12.30;99.90
11922;DHT22;6021;51.182;3.160;2023-05-10T02:47:51;12.40;99.90
11922;DHT22;6021;51.182;3.160;2023-05-10T02:50:20;12.30;99.90
11922;DHT22;6021;51.182;3.160;2023-05-10T02:52:54;12.20;99.90
11922;DHT22;6021;51.182;3.160;2023-05-10T02:55:31;12.40;99.90
11922;DHT22;6021;51.182;3.160;2023-05-10T02:58:02;12.20;99.90
11922;DHT22;6021;51.182;3.160;2023-05-10T03:00:26;12.20;99.90
11922;DHT22;6021;51.182;3.160;2023-05-10T03:02:54;12.30;99.90
11922;DHT22;6021;51.182;3.160;2023-05-10T03:05:23;12.20;99.90
11922;DHT22;6021;51.182;3.160;2023-05-10T03:07:52;12.20;99.90
11922;DHT22;6021;51.182;3.160;2023-05-10T03:10:24;12.30;99.90
11922;DHT22;6021;51.182;3.160;2023-05-10T03:16:05;12.20;99.90
11922;DHT22;6021;51.182;3.160;2023-05-10T03:18:48;12.30;99.90
11922;DHT22;6021;51.182;3.160;2023-05-10T03:21:16;12.20;99.90
11922;DHT22;6021;51.182;3.160;2023-05-10T03:23:59;12.40;99.90
11922;DHT22;6021;51.182;3.160;2023-05-10T03:26:29;12.20;99.90
11922;DHT22;6021;51.182;3.160;2023-05-10T03:28:58;12.20;99.90
11922;DHT22;6021;51.182;3.160;2023-05-10T03:31:26;12.20;99.90
11922;DHT22;6021;51.182;3.160;2023-05-10T03:33:55;12.30;99.90
11922;DHT22;6021;51.182;3.160;2023-05-10T03:36:23;12.30;99.90
11922;DHT22;6021;51.182;3.160;2023-05-10T03:38:52;12.20;99.90
11922;DHT22;6021;51.182;3.160;2023-05-10T03:41:20;12.70;99.90
11922;DHT22;6021;51.182;3.160;2023-05-10T03:43:50;12.40;99.90
11922;DHT22;6021;51.182;3.160;2023-05-10T03:46:18;12.40;99.90
11922;DHT22;6021;51.182;3.160;2023-05-10T03:48:47;12.30;99.90
11922;DHT22;6021;51.182;3.160;2023-05-10T03:51:15;12.30;99.90
11922;DHT22;6021;51.182;3.160;2023-05-10T03:53:43;12.30;99.90
11922;DHT22;6021;51.182;3.160;2023-05-10T03:56:12;12.40;99.90
11922;DHT22;6021;51.182;3.160;2023-05-10T03:58:40;12.30;99.90
11922;DHT22;6021;51.182;3.160;2023-05-10T04:01:08;12.20;99.90
11922;DHT22;6021;51.182;3.160;2023-05-10T04:03:37;12.30;99.90
11922;DHT22;6021;51.182;3.160;2023-05-10T04:06:05;12.40;99.90
11922;DHT22;6021;51.182;3.160;2023-05-10T04:08:35;12.40;99.90
11922;DHT22;6021;51.182;3.160;2023-05-10T04:11:08;12.40;99.90
11922;DHT22;6021;51.182;3.160;2023-05-10T04:13:37;12.30;99.90
11922;DHT22;6021;51.182;3.160;2023-05-10T04:16:05;12.30;99.90
11922;DHT22;6021;51.182;3.160;2023-05-10T04:18:33;12.20;99.90
11922;DHT22;6021;51.182;3.160;2023-05-10T04:21:02;12.40;99.90
11922;DHT22;6021;51.182;3.160;2023-05-10T04:23:30;12.20;99.90
11922;DHT22;6021;51.182;3.160;2023-05-10T04:26:03;12.40;99.90
11922;DHT22;6021;51.182;3.160;2023-05-10T04:28:31;12.40;99.90
11922;DHT22;6021;51.182;3.160;2023-05-10T04:31:08;12.10;99.90
11922;DHT22;6021;51.182;3.160;2023-05-10T04:33:37;12.20;99.90
11922;DHT22;6021;51.182;3.160;2023-05-10T04:36:05;12.20;99.90
11922;DHT22;6021;51.182;3.160;2023-05-10T04:38:34;12.20;99.90
11922;DHT22;6021;51.182;3.160;2023-05-10T04:41:10;12.20;99.90
11922;DHT22;6021;51.182;3.160;2023-05-10T04:43:39;12.20;99.90
11922;DHT22;6021;51.182;3.160;2023-05-10T04:46:07;12.30;99.90
11922;DHT22;6021;51.182;3.160;2023-05-10T04:48:35;12.30;99.90
11922;DHT22;6021;51.182;3.160;2023-05-10T04:51:04;12.30;99.90
11922;DHT22;6021;51.182;3.160;2023-05-10T04:53:33;12.40;99.90
11922;DHT22;6021;51.182;3.160;2023-05-10T04:56:02;12.30;99.90
11922;DHT22;6021;51.182;3.160;2023-05-10T04:58:30;12.40;99.90
11922;DHT22;6021;51.182;3.160;2023-05-10T05:01:07;12.40;99.90
11922;DHT22;6021;51.182;3.160;2023-05-10T05:03:35;12.30;99.90
11922;DHT22;6021;51.182;3.160;2023-05-10T05:06:04;12.20;99.90
11922;DHT22;6021;51.182;3.160;2023-05-10T05:08:32;12.30;99.90
11922;DHT22;6021;51.182;3.160;2023-05-10T05:11:01;12.10;99.90
11922;DHT22;6021;51.182;3.160;2023-05-10T05:13:29;12.60;99.90
11922;DHT22;6021;51.182;3.160;2023-05-10T05:16:00;12.30;99.90
11922;DHT22;6021;51.182;3.160;2023-05-10T05:18:29;12.30;99.90
11922;DHT22;6021;51.182;3.160;2023-05-10T05:20:57;12.40;99.90
11922;DHT22;6021;51.182;3.160;2023-05-10T05:23:25;12.60;99.90
11922;DHT22;6021;51.182;3.160;2023-05-10T05:25:54;12.40;99.90
11922;DHT22;6021;51.182;3.160;2023-05-10T05:28:22;12.40;99.90
11922;DHT22;6021;51.182;3.160;2023-05-10T05:30:51;12.40;99.90
11922;DHT22;6021;51.182;3.160;2023-05-10T05:33:19;12.70;99.90
11922;DHT22;6021;51.182;3.160;2023-05-10T05:35:48;12.60;99.90
11922;DHT22;6021;51.182;3.160;2023-05-10T05:38:17;12.40;99.90
11922;DHT22;6021;51.182;3.160;2023-05-10T05:40:46;12.50;99.90
11922;DHT22;6021;51.182;3.160;2023-05-10T05:43:14;12.70;99.90
11922;DHT22;6021;51.182;3.160;2023-05-10T05:45:43;12.80;99.90
11922;DHT22;6021;51.182;3.160;2023-05-10T05:48:11;12.50;99.90
11922;DHT22;6021;51.182;3.160;2023-05-10T05:50:40;12.70;99.90
11922;DHT22;6021;51.182;3.160;2023-05-10T05:53:09;12.70;99.90
11922;DHT22;6021;51.182;3.160;2023-05-10T05:55:37;12.60;99.90
11922;DHT22;6021;51.182;3.160;2023-05-10T05:58:05;12.70;99.90
11922;DHT22;6021;51.182;3.160;2023-05-10T06:00:34;12.60;99.90
11922;DHT22;6021;51.182;3.160;2023-05-10T06:03:02;12.70;99.90
11922;DHT22;6021;51.182;3.160;2023-05-10T06:05:31;12.60;99.90
11922;DHT22;6021;51.182;3.160;2023-05-10T06:08:00;12.70;99.90
11922;DHT22;6021;51.182;3.160;2023-05-10T06:10:28;12.70;99.90
11922;DHT22;6021;51.182;3.160;2023-05-10T06:12:57;13.10;99.90
11922;DHT22;6021;51.182;3.160;2023-05-10T06:15:26;12.80;99.90
11922;DHT22;6021;51.182;3.160;2023-05-10T06:17:55;12.70;99.90
11922;DHT22;6021;51.182;3.160;2023-05-10T06:20:23;12.70;99.90
11922;DHT22;6021;51.182;3.160;2023-05-10T06:22:51;12.70;99.90
11922;DHT22;6021;51.182;3.160;2023-05-10T06:25:20;12.70;99.90
11922;DHT22;6021;51.182;3.160;2023-05-10T06:27:48;13.00;99.90
11922;DHT22;6021;51.182;3.160;2023-05-10T06:30:17;13.00;99.90
11922;DHT22;6021;51.182;3.160;2023-05-10T06:32:45;13.00;99.90
11922;DHT22;6021;51.182;3.160;2023-05-10T06:35:13;12.90;99.90
11922;DHT22;6021;51.182;3.160;2023-05-10T06:37:42;12.90;99.90
11922;DHT22;6021;51.182;3.160;2023-05-10T06:40:10;13.20;99.90
11922;DHT22;6021;51.182;3.160;2023-05-10T06:42:39;13.00;99.90
11922;DHT22;6021;51.182;3.160;2023-05-10T06:45:08;13.10;99.90
11922;DHT22;6021;51.182;3.160;2023-05-10T06:47:37;13.00;99.90
11922;DHT22;6021;51.182;3.160;2023-05-10T06:50:06;12.90;99.90
11922;DHT22;6021;51.182;3.160;2023-05-10T06:52:35;12.80;99.90
11922;DHT22;6021;51.182;3.160;2023-05-10T06:55:06;13.10;99.90
11922;DHT22;6021;51.182;3.160;2023-05-10T06:57:36;12.80;99.90
11922;DHT22;6021;51.182;3.160;2023-05-10T07:00:05;13.00;99.90
11922;DHT22;6021;51.182;3.160;2023-05-10T07:02:33;12.90;99.90
11922;DHT22;6021;51.182;3.160;2023-05-10T07:05:02;12.90;99.90
11922;DHT22;6021;51.182;3.160;2023-05-10T07:07:30;13.20;99.90
11922;DHT22;6021;51.182;3.160;2023-05-10T07:09:59;13.00;99.90
11922;DHT22;6021;51.182;3.160;2023-05-10T07:12:30;12.90;99.90
11922;DHT22;6021;51.182;3.160;2023-05-10T07:14:58;12.80;99.90
11922;DHT22;6021;51.182;3.160;2023-05-10T07:17:27;12.90;99.90
11922;DHT22;6021;51.182;3.160;2023-05-10T07:19:55;13.10;99.90
11922;DHT22;6021;51.182;3.160;2023-05-10T07:22:23;12.90;99.90
11922;DHT22;6021;51.182;3.160;2023-05-10T07:24:52;13.00;99.90
11922;DHT22;6021;51.182;3.160;2023-05-10T07:27:20;13.00;99.90
11922;DHT22;6021;51.182;3.160;2023-05-10T07:29:49;12.70;99.90
11922;DHT22;6021;51.182;3.160;2023-05-10T07:32:17;13.00;99.90
11922;DHT22;6021;51.182;3.160;2023-05-10T07:34:46;12.80;99.90
11922;DHT22;6021;51.182;3.160;2023-05-10T07:37:14;12.90;99.90
11922;DHT22;6021;51.182;3.160;2023-05-10T07:39:42;13.10;99.90
11922;DHT22;6021;51.182;3.160;2023-05-10T07:42:11;13.00;99.90
11922;DHT22;6021;51.182;3.160;2023-05-10T07:44:39;13.00;99.90
11922;DHT22;6021;51.182;3.160;2023-05-10T07:47:09;13.00;99.90
11922;DHT22;6021;51.182;3.160;2023-05-10T07:49:38;13.10;99.90
11922;DHT22;6021;51.182;3.160;2023-05-10T07:52:06;13.10;99.90
11922;DHT22;6021;51.182;3.160;2023-05-10T07:54:36;13.10;99.90
11922;DHT22;6021;51.182;3.160;2023-05-10T07:57:05;13.20;99.90
11922;DHT22;6021;51.182;3.160;2023-05-10T07:59:33;13.20;99.90
11922;DHT22;6021;51.182;3.160;2023-05-10T08:02:01;13.40;99.90
11922;DHT22;6021;51.182;3.160;2023-05-10T08:04:30;13.40;99.90
11922;DHT22;6021;51.182;3.160;2023-05-10T08:06:58;13.50;99.90
11922;DHT22;6021;51.182;3.160;2023-05-10T08:09:27;13.80;99.90
11922;DHT22;6021;51.182;3.160;2023-05-10T08:11:55;13.50;99.90
11922;DHT22;6021;51.182;3.160;2023-05-10T08:14:24;13.50;99.90
11922;DHT22;6021;51.182;3.160;2023-05-10T08:16:52;13.50;99.90
11922;DHT22;6021;51.182;3.160;2023-05-10T08:19:20;13.40;99.90
11922;DHT22;6021;51.182;3.160;2023-05-10T08:21:50;13.70;99.90
11922;DHT22;6021;51.182;3.160;2023-05-10T08:24:18;13.70;99.90
11922;DHT22;6021;51.182;3.160;2023-05-10T08:26:46;13.80;99.90
11922;DHT22;6021;51.182;3.160;2023-05-10T08:29:15;13.70;99.90
11922;DHT22;6021;51.182;3.160;2023-05-10T08:31:44;13.60;99.90
11922;DHT22;6021;51.182;3.160;2023-05-10T08:34:12;13.50;99.90
11922;DHT22;6021;51.182;3.160;2023-05-10T08:36:41;13.70;99.90
11922;DHT22;6021;51.182;3.160;2023-05-10T08:39:09;14.00;99.90
11922;DHT22;6021;51.182;3.160;2023-05-10T08:41:39;13.70;99.90
11922;DHT22;6021;51.182;3.160;2023-05-10T08:44:09;13.70;99.90
11922;DHT22;6021;51.182;3.160;2023-05-10T08:46:38;13.80;99.90
11922;DHT22;6021;51.182;3.160;2023-05-10T08:49:11;13.80;99.90
11922;DHT22;6021;51.182;3.160;2023-05-10T08:51:44;13.80;99.90
11922;DHT22;6021;51.182;3.160;2023-05-10T08:54:13;13.80;99.90
11922;DHT22;6021;51.182;3.160;2023-05-10T08:56:42;13.80;99.90
11922;DHT22;6021;51.182;3.160;2023-05-10T08:59:10;13.90;99.90
11922;DHT22;6021;51.182;3.160;2023-05-10T09:01:40;13.70;99.90
11922;DHT22;6021;51.182;3.160;2023-05-10T09:04:11;13.70;99.90
11922;DHT22;6021;51.182;3.160;2023-05-10T09:06:39;13.60;99.90
11922;DHT22;6021;51.182;3.160;2023-05-10T09:09:08;13.40;99.90
11922;DHT22;6021;51.182;3.160;2023-05-10T09:11:37;13.80;99.90
11922;DHT22;6021;51.182;3.160;2023-05-10T09:14:05;13.70;99.90
11922;DHT22;6021;51.182;3.160;2023-05-10T09:16:34;13.80;99.90
11922;DHT22;6021;51.182;3.160;2023-05-10T09:19:03;14.00;99.90
11922;DHT22;6021;51.182;3.160;2023-05-10T09:21:31;13.80;99.90
11922;DHT22;6021;51.182;3.160;2023-05-10T09:24:05;14.00;99.90
11922;DHT22;6021;51.182;3.160;2023-05-10T09:26:33;14.00;99.90
11922;DHT22;6021;51.182;3.160;2023-05-10T09:29:02;13.90;99.90
11922;DHT22;6021;51.182;3.160;2023-05-10T09:34:19;13.80;99.90
11922;DHT22;6021;51.182;3.160;2023-05-10T09:37:01;13.80;99.90
11922;DHT22;6021;51.182;3.160;2023-05-10T09:39:36;13.90;99.90
11922;DHT22;6021;51.182;3.160;2023-05-10T09:42:08;14.20;99.90
11922;DHT22;6021;51.182;3.160;2023-05-10T09:44:37;14.20;99.90
11922;DHT22;6021;51.182;3.160;2023-05-10T09:47:06;14.20;99.90
11922;DHT22;6021;51.182;3.160;2023-05-10T09:49:34;14.30;99.90
11922;DHT22;6021;51.182;3.160;2023-05-10T09:52:05;14.30;99.90
11922;DHT22;6021;51.182;3.160;2023-05-10T09:54:34;14.20;99.90
11922;DHT22;6021;51.182;3.160;2023-05-10T09:57:03;14.30;99.90
11922;DHT22;6021;51.182;3.160;2023-05-10T09:59:33;14.40;99.90
11922;DHT22;6021;51.182;3.160;2023-05-10T10:02:03;14.30;99.90
11922;DHT22;6021;51.182;3.160;2023-05-10T10:04:31;14.00;99.90
11922;DHT22;6021;51.182;3.160;2023-05-10T10:07:04;14.20;99.90
11922;DHT22;6021;51.182;3.160;2023-05-10T10:09:33;14.20;99.90
11922;DHT22;6021;51.182;3.160;2023-05-10T10:12:03;14.20;99.90
11922;DHT22;6021;51.182;3.160;2023-05-10T10:14:32;14.40;99.90
11922;DHT22;6021;51.182;3.160;2023-05-10T10:17:00;14.30;99.90
11922;DHT22;6021;51.182;3.160;2023-05-10T10:19:30;14.50;99.90
11922;DHT22;6021;51.182;3.160;2023-05-10T10:22:00;14.30;99.90
11922;DHT22;6021;51.182;3.160;2023-05-10T10:24:29;14.30;99.90
11922;DHT22;6021;51.182;3.160;2023-05-10T10:27:01;14.30;99.90
11922;DHT22;6021;51.182;3.160;2023-05-10T10:29:39;14.20;99.90
11922;DHT22;6021;51.182;3.160;2023-05-10T10:35:02;14.30;99.90
11922;DHT22;6021;51.182;3.160;2023-05-10T10:37:48;14.30;99.90
11922;DHT22;6021;51.182;3.160;2023-05-10T10:40:31;14.30;99.90
11922;DHT22;6021;51.182;3.160;2023-05-10T10:43:29;14.30;99.90
11922;DHT22;6021;51.182;3.160;2023-05-10T10:51:39;14.50;99.90
11922;DHT22;6021;51.182;3.160;2023-05-10T10:54:11;14.50;99.90
11922;DHT22;6021;51.182;3.160;2023-05-10T10:56:44;14.50;99.90
11922;DHT22;6021;51.182;3.160;2023-05-10T10:59:26;14.80;99.90
11922;DHT22;6021;51.182;3.160;2023-05-10T11:01:51;14.50;99.90
11922;DHT22;6021;51.182;3.160;2023-05-10T11:04:18;14.70;99.90
11922;DHT22;6021;51.182;3.160;2023-05-10T11:06:47;14.50;99.90
11922;DHT22;6021;51.182;3.160;2023-05-10T11:09:15;14.80;99.90
11922;DHT22;6021;51.182;3.160;2023-05-10T11:11:55;14.60;99.90
11922;DHT22;6021;51.182;3.160;2023-05-10T11:14:30;14.60;99.90
11922;DHT22;6021;51.182;3.160;2023-05-10T11:17:21;14.80;99.90
11922;DHT22;6021;51.182;3.160;2023-05-10T11:19:33;14.90;99.90
11922;DHT22;6021;51.182;3.160;2023-05-10T11:24:55;15.10;99.90
11922;DHT22;6021;51.182;3.160;2023-05-10T11:27:12;15.20;99.90
11922;DHT22;6021;51.182;3.160;2023-05-10T11:29:44;15.10;99.90
11922;DHT22;6021;51.182;3.160;2023-05-10T11:32:12;15.10;99.90
11922;DHT22;6021;51.182;3.160;2023-05-10T11:34:46;15.00;99.90
11922;DHT22;6021;51.182;3.160;2023-05-10T11:37:30;14.80;99.90
11922;DHT22;6021;51.182;3.160;2023-05-10T11:40:06;14.80;99.90
11922;DHT22;6021;51.182;3.160;2023-05-10T11:42:50;14.80;99.90
11922;DHT22;6021;51.182;3.160;2023-05-10T11:45:18;14.70;99.90
11922;DHT22;6021;51.182;3.160;2023-05-10T11:47:57;14.90;99.90
11922;DHT22;6021;51.182;3.160;2023-05-10T11:50:26;14.70;99.90
11922;DHT22;6021;51.182;3.160;2023-05-10T11:53:00;14.70;99.90
11922;DHT22;6021;51.182;3.160;2023-05-10T11:55:33;14.80;99.90
11922;DHT22;6021;51.182;3.160;2023-05-10T11:58:03;15.00;99.90
11922;DHT22;6021;51.182;3.160;2023-05-10T12:00:35;14.90;99.90
11922;DHT22;6021;51.182;3.160;2023-05-10T12:03:07;14.90;99.90
11922;DHT22;6021;51.182;3.160;2023-05-10T12:05:41;14.80;99.90
11922;DHT22;6021;51.182;3.160;2023-05-10T12:08:24;15.10;99.90
11922;DHT22;6021;51.182;3.160;2023-05-10T12:11:04;15.30;99.90
11922;DHT22;6021;51.182;3.160;2023-05-10T12:13:24;15.20;99.90
11922;DHT22;6021;51.182;3.160;2023-05-10T12:16:01;15.10;99.90
11922;DHT22;6021;51.182;3.160;2023-05-10T12:18:28;15.10;95.30
11922;DHT22;6021;51.182;3.160;2023-05-10T12:21:02;14.90;84.20
11922;DHT22;6021;51.182;3.160;2023-05-10T12:23:34;15.10;78.40
11922;DHT22;6021;51.182;3.160;2023-05-10T12:26:04;15.30;84.60
11922;DHT22;6021;51.182;3.160;2023-05-10T12:28:33;15.50;94.60
11922;DHT22;6021;51.182;3.160;2023-05-10T12:31:02;15.50;71.50
11922;DHT22;6021;51.182;3.160;2023-05-10T12:33:42;15.70;55.40
11922;DHT22;6021;51.182;3.160;2023-05-10T12:36:14;15.70;78.00
11922;DHT22;6021;51.182;3.160;2023-05-10T12:38:44;15.70;15.00
11922;DHT22;6021;51.182;3.160;2023-05-10T12:41:16;15.60;13.60
11922;DHT22;6021;51.182;3.160;2023-05-10T12:43:46;15.60;36.60
11922;DHT22;6021;51.182;3.160;2023-05-10T12:46:18;15.50;10.40
11922;DHT22;6021;51.182;3.160;2023-05-10T12:48:48;15.30;9.40
11922;DHT22;6021;51.182;3.160;2023-05-10T12:51:18;15.30;20.40
11922;DHT22;6021;51.182;3.160;2023-05-10T12:53:48;15.50;22.10
11922;DHT22;6021;51.182;3.160;2023-05-10T12:56:24;15.50;13.70
11922;DHT22;6021;51.182;3.160;2023-05-10T12:59:00;15.40;14.60
11922;DHT22;6021;51.182;3.160;2023-05-10T13:01:27;15.40;17.60
11922;DHT22;6021;51.182;3.160;2023-05-10T13:03:59;15.50;7.10
11922;DHT22;6021;51.182;3.160;2023-05-10T13:06:29;15.40;1.00
11922;DHT22;6021;51.182;3.160;2023-05-10T13:08:59;15.60;2.70
11922;DHT22;6021;51.182;3.160;2023-05-10T13:11:33;15.50;1.00
11922;DHT22;6021;51.182;3.160;2023-05-10T13:14:04;15.40;1.00
11922;DHT22;6021;51.182;3.160;2023-05-10T13:16:33;15.50;1.00
11922;DHT22;6021;51.182;3.160;2023-05-10T13:19:03;15.50;1.00
11922;DHT22;6021;51.182;3.160;2023-05-10T13:21:38;15.50;1.00
11922;DHT22;6021;51.182;3.160;2023-05-10T13:24:16;15.50;1.00
11922;DHT22;6021;51.182;3.160;2023-05-10T13:26:50;15.60;1.00
11922;DHT22;6021;51.182;3.160;2023-05-10T13:29:29;15.60;1.00
11922;DHT22;6021;51.182;3.160;2023-05-10T13:32:03;15.60;1.00
11922;DHT22;6021;51.182;3.160;2023-05-10T13:34:32;15.60;1.00
11922;DHT22;6021;51.182;3.160;2023-05-10T13:37:08;15.70;1.00
11922;DHT22;6021;51.182;3.160;2023-05-10T13:39:42;16.10;1.00
11922;DHT22;6021;51.182;3.160;2023-05-10T13:44:51;15.60;1.00
11922;DHT22;6021;51.182;3.160;2023-05-10T13:47:22;15.70;1.00
11922;DHT22;6021;51.182;3.160;2023-05-10T13:49:54;15.70;1.00
11922;DHT22;6021;51.182;3.160;2023-05-10T13:52:24;15.90;1.00
11922;DHT22;6021;51.182;3.160;2023-05-10T13:54:54;16.00;1.00
11922;DHT22;6021;51.182;3.160;2023-05-10T13:57:25;16.10;1.00
11922;DHT22;6021;51.182;3.160;2023-05-10T13:59:54;16.20;1.00
11922;DHT22;6021;51.182;3.160;2023-05-10T14:02:22;16.10;1.00
11922;DHT22;6021;51.182;3.160;2023-05-10T14:04:54;16.00;1.00
11922;DHT22;6021;51.182;3.160;2023-05-10T14:07:25;15.90;1.00
11922;DHT22;6021;51.182;3.160;2023-05-10T14:09:58;15.80;1.00
11922;DHT22;6021;51.182;3.160;2023-05-10T14:12:28;15.80;1.00
11922;DHT22;6021;51.182;3.160;2023-05-10T14:14:57;15.80;1.00
11922;DHT22;6021;51.182;3.160;2023-05-10T14:17:26;15.90;1.00
11922;DHT22;6021;51.182;3.160;2023-05-10T14:19:59;15.90;1.00
11922;DHT22;6021;51.182;3.160;2023-05-10T14:22:30;15.90;1.00
11922;DHT22;6021;51.182;3.160;2023-05-10T14:24:59;16.00;1.00
11922;DHT22;6021;51.182;3.160;2023-05-10T14:27:28;16.00;1.00
11922;DHT22;6021;51.182;3.160;2023-05-10T14:29:59;16.00;1.00
11922;DHT22;6021;51.182;3.160;2023-05-10T14:32:30;16.00;1.00
11922;DHT22;6021;51.182;3.160;2023-05-10T14:37:38;16.10;1.00
11922;DHT22;6021;51.182;3.160;2023-05-10T14:40:18;16.00;1.00
11922;DHT22;6021;51.182;3.160;2023-05-10T14:42:47;16.00;1.00
11922;DHT22;6021;51.182;3.160;2023-05-10T14:45:20;16.10;1.00
11922;DHT22;6021;51.182;3.160;2023-05-10T14:47:53;16.10;1.00
11922;DHT22;6021;51.182;3.160;2023-05-10T14:50:32;16.10;1.00
11922;DHT22;6021;51.182;3.160;2023-05-10T14:53:01;16.10;1.00
11922;DHT22;6021;51.182;3.160;2023-05-10T14:55:32;16.10;1.00
11922;DHT22;6021;51.182;3.160;2023-05-10T14:58:06;16.00;1.00
11922;DHT22;6021;51.182;3.160;2023-05-10T15:00:41;16.00;1.00
11922;DHT22;6021;51.182;3.160;2023-05-10T15:03:32;16.10;1.00
11922;DHT22;6021;51.182;3.160;2023-05-10T15:06:02;16.20;1.00
11922;DHT22;6021;51.182;3.160;2023-05-10T15:08:35;16.40;1.00
11922;DHT22;6021;51.182;3.160;2023-05-10T15:11:07;16.50;1.00
11922;DHT22;6021;51.182;3.160;2023-05-10T15:13:38;16.40;1.00
11922;DHT22;6021;51.182;3.160;2023-05-10T15:16:17;16.50;1.00
11922;DHT22;6021;51.182;3.160;2023-05-10T15:18:48;16.50;1.00
11922;DHT22;6021;51.182;3.160;2023-05-10T15:21:18;16.40;1.00
11922;DHT22;6021;51.182;3.160;2023-05-10T15:23:48;16.40;1.00
11922;DHT22;6021;51.182;3.160;2023-05-10T15:26:19;16.40;1.00
11922;DHT22;6021;51.182;3.160;2023-05-10T15:28:50;16.20;1.00
11922;DHT22;6021;51.182;3.160;2023-05-10T15:31:22;16.40;1.00
11922;DHT22;6021;51.182;3.160;2023-05-10T15:33:50;16.10;1.00
11922;DHT22;6021;51.182;3.160;2023-05-10T15:36:18;16.00;1.00
11922;DHT22;6021;51.182;3.160;2023-05-10T15:38:50;16.10;1.00
11922;DHT22;6021;51.182;3.160;2023-05-10T15:41:19;16.00;1.00
11922;DHT22;6021;51.182;3.160;2023-05-10T15:44:14;16.30;1.00
11922;DHT22;6021;51.182;3.160;2023-05-10T15:46:44;16.40;1.00
11922;DHT22;6021;51.182;3.160;2023-05-10T15:49:23;16.40;1.00
11922;DHT22;6021;51.182;3.160;2023-05-10T15:51:53;16.40;1.00
11922;DHT22;6021;51.182;3.160;2023-05-10T15:54:21;16.40;1.00
11922;DHT22;6021;51.182;3.160;2023-05-10T15:56:55;16.30;1.00
11922;DHT22;6021;51.182;3.160;2023-05-10T15:59:31;16.30;1.00
11922;DHT22;6021;51.182;3.160;2023-05-10T16:02:06;16.20;1.00
11922;DHT22;6021;51.182;3.160;2023-05-10T16:04:36;16.20;1.00
11922;DHT22;6021;51.182;3.160;2023-05-10T16:07:06;16.20;1.00
11922;DHT22;6021;51.182;3.160;2023-05-10T16:09:36;16.10;1.00
11922;DHT22;6021;51.182;3.160;2023-05-10T16:12:05;15.90;1.00
11922;DHT22;6021;51.182;3.160;2023-05-10T16:14:37;15.80;1.00
11922;DHT22;6021;51.182;3.160;2023-05-10T16:17:05;15.70;1.00
11922;DHT22;6021;51.182;3.160;2023-05-10T16:19:36;15.60;1.00
11922;DHT22;6021;51.182;3.160;2023-05-10T16:22:05;15.70;1.00
11922;DHT22;6021;51.182;3.160;2023-05-10T16:24:36;15.70;1.00
11922;DHT22;6021;51.182;3.160;2023-05-10T16:27:08;15.80;1.00
11922;DHT22;6021;51.182;3.160;2023-05-10T16:29:52;15.70;1.00
11922;DHT22;6021;51.182;3.160;2023-05-10T16:32:20;16.00;1.00
11922;DHT22;6021;51.182;3.160;2023-05-10T16:34:50;15.70;1.00
11922;DHT22;6021;51.182;3.160;2023-05-10T16:39:59;15.90;1.00
11922;DHT22;6021;51.182;3.160;2023-05-10T16:42:29;15.90;1.00
11922;DHT22;6021;51.182;3.160;2023-05-10T16:44:59;16.00;1.00
11922;DHT22;6021;51.182;3.160;2023-05-10T16:47:35;15.90;1.00
11922;DHT22;6021;51.182;3.160;2023-05-10T16:50:05;15.90;1.00
11922;DHT22;6021;51.182;3.160;2023-05-10T16:52:35;16.10;1.00
11922;DHT22;6021;51.182;3.160;2023-05-10T16:55:06;16.10;1.00
11922;DHT22;6021;51.182;3.160;2023-05-10T16:57:41;16.10;1.00
11922;DHT22;6021;51.182;3.160;2023-05-10T17:00:14;16.20;1.00
11922;DHT22;6021;51.182;3.160;2023-05-10T17:02:47;16.40;1.00
11922;DHT22;6021;51.182;3.160;2023-05-10T17:05:15;16.00;1.00